Ft Sturla — IBXV — position and weather

sailwx.info

Track history (hours):
 
Tides and Currents Weather Stations Pressure Air Temp Water Temp Dewpoint Dewpoint Depression Visibility Wind Speed Wind Dir Waves Ship Positions

Ft Sturla

Last reported at 2015-Apr-16 23:33 UTC. Time now 2015-Apr-21 01:27 UTC.
Position N 36°42' E 014°29'.

Length 120 m; draft 7.2 m.

Type: Ship (hazmat cat C). MMSI: 247282200.

Date/timePositionNaut miles runAvg speedWind from/ knotsBaromVisibWave heightAir tempDewpointWater temp
2015-Apr-16 23:33N 36°42' E 014°29'1212.3
2015-Apr-16 22:33N 36°47' E 014°15'1312.5
2015-Apr-16 21:33N 36°53' E 014°02'1212.2
2015-Apr-16 20:33N 36°59' E 013°48'1312.2
2015-Apr-16 19:32N 37°04' E 013°34'1212.2
2015-Apr-16 18:33N 37°09' E 013°20'4811.8
2015-Apr-16 14:29N 37°31' E 012°26'1111.7
2015-Apr-16 13:33N 37°35' E 012°14'1211.5
2015-Apr-16 12:33N 37°39' E 012°00'1211.8
2015-Apr-16 11:30N 37°44' E 011°46'1111.5
2015-Apr-16 10:33N 37°48' E 011°33'2411.6
2015-Apr-16 08:30N 37°58' E 011°05'1212.2
2015-Apr-16 07:33N 38°02' E 010°51'1211.9
2015-Apr-16 06:33N 38°06' E 010°37'6112.0
2015-Apr-16 01:27N 38°29' E 009°25'15210.2
2015-Apr-15 10:29N 40°47' E 008°00'18 8.4
2015-Apr-15 08:24N 41°01' E 007°46'4511.7
2015-Apr-15 04:33N 41°33' E 007°05'2512.4
2015-Apr-15 02:33N 41°52' E 006°42'1212.4
2015-Apr-15 01:33N 42°01' E 006°31'1212.2
2015-Apr-15 00:33N 42°10' E 006°20'1212.1
2015-Apr-14 23:33N 42°18' E 006°09'1212.1
2015-Apr-14 22:32N 42°27' E 005°57'1612.0
2015-Apr-14 21:13N 42°39' E 005°43'811.7
2015-Apr-14 20:32N 42°45' E 005°35'2211.0
2015-Apr-14 18:30N 43°01' E 005°14'1311.8
2015-Apr-14 17:23N 43°10' E 005°02'1011.9
2015-Apr-14 16:33N 43°20' E 004°58'6 6.1
2015-Apr-14 15:31N 43°25' E 004°53'0 0.0
2015-Apr-14 14:25N 43°25' E 004°53'0 0.0
2015-Apr-14 13:28N 43°25' E 004°53'0 0.0
2015-Apr-14 12:28N 43°25' E 004°53'0 0.0
2015-Apr-14 11:31N 43°25' E 004°53'0 0.0
2015-Apr-14 10:28N 43°25' E 004°53'0 0.0
2015-Apr-14 09:28N 43°25' E 004°53'0 0.0
2015-Apr-14 08:31N 43°25' E 004°53'0 0.0
2015-Apr-14 07:31N 43°25' E 004°53'0 0.0
2015-Apr-14 06:32N 43°25' E 004°53'0 0.0
2015-Apr-14 05:31N 43°25' E 004°53'0 0.0
2015-Apr-14 04:31N 43°25' E 004°53'0 0.0
2015-Apr-14 03:28N 43°25' E 004°53'0 0.0
2015-Apr-14 02:28N 43°25' E 004°53'0 0.0
2015-Apr-14 01:25N 43°25' E 004°53'0 0.0
2015-Apr-14 00:31N 43°25' E 004°53'0 0.0
2015-Apr-13 23:31N 43°25' E 004°53'0 0.0
2015-Apr-13 22:31N 43°25' E 004°53'0 0.0
2015-Apr-13 21:25N 43°25' E 004°53'0 0.0
2015-Apr-13 20:31N 43°25' E 004°53'0 0.0
2015-Apr-13 19:28N 43°25' E 004°53'0 0.0
2015-Apr-13 18:31N 43°25' E 004°53'0 0.0
2015-Apr-13 17:28N 43°25' E 004°53'0 0.0
2015-Apr-13 16:25N 43°25' E 004°53'0 0.0
2015-Apr-13 15:28N 43°25' E 004°53'0 0.0
2015-Apr-13 14:31N 43°25' E 004°53'0 0.0
2015-Apr-13 13:29N 43°25' E 004°53'1 0.8
2015-Apr-13 12:33N 43°24' E 004°53'4 3.8
2015-Apr-13 11:32N 43°24' E 004°58'0 0.0
2015-Apr-13 10:32N 43°24' E 004°58'0 0.0
2015-Apr-13 09:26N 43°24' E 004°58'0 0.0
2015-Apr-13 08:32N 43°24' E 004°58'0 0.0
2015-Apr-13 07:32N 43°24' E 004°58'0 0.0
2015-Apr-13 06:29N 43°24' E 004°58'0 0.0
2015-Apr-13 05:29N 43°24' E 004°58'0 0.0
2015-Apr-13 04:26N 43°24' E 004°58'0 0.0
2015-Apr-13 03:32N 43°24' E 004°58'0 0.0
2015-Apr-13 02:32N 43°24' E 004°58'0 0.0
2015-Apr-13 01:32N 43°24' E 004°58'0 0.0
2015-Apr-13 00:32N 43°24' E 004°58'0 0.0
2015-Apr-12 23:32N 43°24' E 004°58'0 0.0
2015-Apr-12 21:29N 43°24' E 004°58'0 0.1
2015-Apr-12 20:32N 43°24' E 004°58'0 0.1
2015-Apr-12 19:26N 43°24' E 004°58'0 0.0
2015-Apr-12 18:32N 43°24' E 004°58'0 0.0
2015-Apr-12 17:29N 43°24' E 004°58'0 0.0
2015-Apr-12 16:29N 43°24' E 004°58'0 0.0
2015-Apr-12 15:27N 43°24' E 004°58'0 0.0
2015-Apr-12 14:29N 43°24' E 004°58'0 0.0
2015-Apr-12 13:33N 43°24' E 004°58'0 0.0
2015-Apr-12 12:32N 43°24' E 004°58'0 0.0
2015-Apr-12 11:26N 43°24' E 004°58'0 0.0
2015-Apr-12 10:32N 43°24' E 004°58'0 0.0
2015-Apr-12 09:26N 43°24' E 004°58'0 0.1
2015-Apr-12 08:20N 43°24' E 004°58'0 0.1
2015-Apr-12 07:32N 43°24' E 004°58'0 0.0
2015-Apr-12 06:32N 43°24' E 004°58'0 0.0
2015-Apr-12 05:32N 43°24' E 004°58'0 0.0
2015-Apr-12 04:29N 43°24' E 004°58'0 0.0
2015-Apr-12 03:29N 43°24' E 004°58'0 0.0
2015-Apr-12 02:32N 43°24' E 004°58'0 0.0
2015-Apr-12 01:32N 43°24' E 004°58'0 0.1
2015-Apr-12 00:29N 43°24' E 004°58'0 0.0
2015-Apr-11 23:33N 43°24' E 004°58'0 0.0
2015-Apr-11 22:32N 43°24' E 004°58'0 0.0
2015-Apr-11 21:26N 43°24' E 004°58'0 0.0
2015-Apr-11 20:26N 43°24' E 004°58'0 0.1
2015-Apr-11 19:32N 43°24' E 004°58'0 0.1
2015-Apr-11 18:32N 43°24' E 004°58'0 0.0
2015-Apr-11 17:29N 43°24' E 004°58'0 0.0
2015-Apr-11 16:23N 43°24' E 004°58'0 0.0
2015-Apr-11 15:32N 43°24' E 004°58'0 0.0
2015-Apr-11 14:29N 43°24' E 004°58'0 0.0
2015-Apr-11 13:32N 43°24' E 004°58'0 0.0
2015-Apr-11 12:26N 43°24' E 004°58'0 0.0
2015-Apr-11 11:32N 43°24' E 004°58'0 0.0
2015-Apr-11 10:32N 43°24' E 004°58'0 0.0
2015-Apr-11 09:32N 43°24' E 004°58'0 0.0
2015-Apr-11 08:32N 43°24' E 004°58'0 0.0
2015-Apr-11 07:23N 43°24' E 004°58'0 0.0
2015-Apr-11 06:26N 43°24' E 004°58'0 0.0
2015-Apr-11 05:32N 43°24' E 004°58'0 0.0
2015-Apr-11 04:29N 43°24' E 004°58'0 0.0
2015-Apr-11 03:23N 43°24' E 004°58'0 0.0
2015-Apr-11 02:29N 43°24' E 004°58'0 0.0
2015-Apr-11 01:29N 43°24' E 004°58'0 0.1
2015-Apr-11 00:32N 43°24' E 004°58'0 0.0
2015-Apr-10 23:32N 43°24' E 004°58'0 0.0
2015-Apr-10 22:32N 43°24' E 004°58'0 0.0
2015-Apr-10 21:29N 43°24' E 004°58'0 0.0
2015-Apr-10 20:32N 43°24' E 004°58'0 0.0
2015-Apr-10 19:23N 43°24' E 004°58'0 0.0
2015-Apr-10 18:32N 43°24' E 004°58'0 0.0
2015-Apr-10 17:32N 43°24' E 004°58'0 0.0
2015-Apr-10 16:32N 43°24' E 004°58'0 0.0
2015-Apr-10 15:32N 43°24' E 004°58'0 0.0
2015-Apr-10 14:32N 43°24' E 004°58'0 0.0
2015-Apr-10 13:26N 43°24' E 004°58'0 0.0
2015-Apr-10 12:32N 43°24' E 004°58'0 0.0
2015-Apr-10 11:32N 43°24' E 004°58'0 0.0
2015-Apr-10 10:32N 43°24' E 004°58'0 0.0
2015-Apr-10 09:32N 43°24' E 004°58'0 0.0
2015-Apr-10 08:32N 43°24' E 004°58'0 0.0
2015-Apr-10 07:23N 43°24' E 004°58'0 0.1
2015-Apr-10 06:33N 43°24' E 004°58'0 0.0
2015-Apr-10 05:23N 43°24' E 004°58'0 0.0
2015-Apr-10 04:32N 43°24' E 004°58'0 0.0
2015-Apr-10 03:29N 43°24' E 004°58'0 0.0
2015-Apr-10 02:32N 43°24' E 004°58'0 0.1
2015-Apr-10 01:26N 43°24' E 004°58'0 0.0
2015-Apr-10 00:26N 43°24' E 004°58'0 0.0
2015-Apr-09 23:32N 43°24' E 004°58'0 0.0
2015-Apr-09 22:32N 43°24' E 004°58'0 0.0
2015-Apr-09 21:32N 43°24' E 004°58'0 0.0
2015-Apr-09 20:23N 43°24' E 004°58'0 0.0
2015-Apr-09 19:29N 43°24' E 004°58'0 0.0
2015-Apr-09 18:26N 43°24' E 004°58'0 0.0
2015-Apr-09 17:32N 43°24' E 004°58'0 0.0
2015-Apr-09 16:32N 43°24' E 004°58'0 0.0
2015-Apr-09 15:32N 43°24' E 004°58'0 0.0
2015-Apr-09 14:26N 43°24' E 004°58'0 0.0
2015-Apr-09 13:32N 43°24' E 004°58'0 0.0
2015-Apr-09 12:32N 43°24' E 004°58'0 0.0
2015-Apr-09 11:32N 43°24' E 004°58'0 0.0
2015-Apr-09 10:29N 43°24' E 004°58'0 0.0
2015-Apr-09 09:26N 43°24' E 004°58'0 0.0
2015-Apr-09 08:32N 43°24' E 004°58'0 0.0
2015-Apr-09 07:30N 43°24' E 004°58'0 0.0
2015-Apr-09 06:32N 43°24' E 004°58'0 0.0
2015-Apr-09 05:29N 43°24' E 004°58'0 0.0
2015-Apr-09 04:32N 43°24' E 004°58'0 0.0
2015-Apr-09 03:29N 43°24' E 004°58'0 0.0
2015-Apr-09 02:26N 43°24' E 004°58'0 0.0
2015-Apr-09 01:32N 43°24' E 004°58'0 0.0
2015-Apr-09 00:29N 43°24' E 004°58'0 0.0
2015-Apr-08 23:32N 43°24' E 004°58'0 0.0
2015-Apr-08 22:32N 43°24' E 004°58'0 0.1
2015-Apr-08 21:32N 43°24' E 004°58'0 0.0
2015-Apr-08 20:32N 43°24' E 004°58'0 0.0
2015-Apr-08 19:30N 43°24' E 004°58'0 0.0
2015-Apr-08 18:32N 43°24' E 004°58'0 0.0
2015-Apr-08 17:32N 43°24' E 004°58'0 0.0
2015-Apr-08 16:32N 43°24' E 004°58'0 0.0
2015-Apr-08 15:32N 43°24' E 004°58'0 0.0
2015-Apr-08 14:32N 43°24' E 004°58'0 0.0
2015-Apr-08 13:32N 43°24' E 004°58'0 0.0
2015-Apr-08 12:26N 43°24' E 004°58'0 0.0
2015-Apr-08 11:32N 43°24' E 004°58'0 0.1
2015-Apr-08 10:32N 43°24' E 004°58'0 0.0
2015-Apr-08 09:23N 43°24' E 004°58'0 0.0
2015-Apr-08 08:32N 43°24' E 004°58'0 0.0
2015-Apr-08 07:20N 43°24' E 004°58'0 0.0
2015-Apr-08 06:26N 43°24' E 004°58'0 0.0
2015-Apr-08 05:29N 43°24' E 004°58'0 0.0
2015-Apr-08 04:33N 43°24' E 004°58'0 0.0
2015-Apr-08 03:30N 43°24' E 004°58'0 0.0
2015-Apr-08 02:32N 43°24' E 004°58'0 0.0
2015-Apr-08 01:32N 43°24' E 004°58'0 0.0
2015-Apr-08 00:32N 43°24' E 004°58'0 0.0
2015-Apr-07 23:32N 43°24' E 004°58'0 0.0
2015-Apr-07 22:29N 43°24' E 004°58'0 0.0
2015-Apr-07 21:29N 43°24' E 004°58'0 0.0
2015-Apr-07 20:32N 43°24' E 004°58'0 0.0
2015-Apr-07 19:32N 43°24' E 004°58'0 0.0
2015-Apr-07 18:26N 43°24' E 004°58'0 0.0
2015-Apr-07 17:26N 43°24' E 004°58'0 0.0
2015-Apr-07 16:32N 43°24' E 004°58'0 0.0
2015-Apr-07 15:32N 43°24' E 004°58'0 0.0
2015-Apr-07 14:32N 43°24' E 004°58'0 0.0
2015-Apr-07 13:23N 43°24' E 004°58'0 0.0
2015-Apr-07 12:26N 43°24' E 004°58'0 0.0
2015-Apr-07 11:32N 43°24' E 004°58'0 0.1
2015-Apr-07 10:33N 43°24' E 004°58'9 9.1
2015-Apr-07 09:33N 43°15' E 005°01'1110.8
2015-Apr-07 08:34N 43°07' E 005°11'  
Track history (hours):
 
Tides and Currents Weather Stations Pressure Air Temp Water Temp Dewpoint Dewpoint Depression Visibility Wind Speed Wind Dir Waves Ship Positions

Ft Sturla

Last reported at 2015-Apr-16 23:33 UTC. Time now 2015-Apr-21 01:27 UTC.
Position N 36°42' E 014°29'.

Length 120 m; draft 7.2 m.

Type: Ship (hazmat cat C). MMSI: 247282200.

Date/timePositionNaut miles runAvg speedWind from/ knotsBaromVisibWave heightAir tempDewpointWater temp
2015-Apr-16 23:33N 36°42' E 014°29'1212.3
2015-Apr-16 22:33N 36°47' E 014°15'1312.5
2015-Apr-16 21:33N 36°53' E 014°02'1212.2
2015-Apr-16 20:33N 36°59' E 013°48'1312.2
2015-Apr-16 19:32N 37°04' E 013°34'1212.2
2015-Apr-16 18:33N 37°09' E 013°20'4811.8
2015-Apr-16 14:29N 37°31' E 012°26'1111.7
2015-Apr-16 13:33N 37°35' E 012°14'1211.5
2015-Apr-16 12:33N 37°39' E 012°00'1211.8
2015-Apr-16 11:30N 37°44' E 011°46'1111.5
2015-Apr-16 10:33N 37°48' E 011°33'2411.6
2015-Apr-16 08:30N 37°58' E 011°05'1212.2
2015-Apr-16 07:33N 38°02' E 010°51'1211.9
2015-Apr-16 06:33N 38°06' E 010°37'6112.0
2015-Apr-16 01:27N 38°29' E 009°25'15210.2
2015-Apr-15 10:29N 40°47' E 008°00'18 8.4
2015-Apr-15 08:24N 41°01' E 007°46'4511.7
2015-Apr-15 04:33N 41°33' E 007°05'2512.4
2015-Apr-15 02:33N 41°52' E 006°42'1212.4
2015-Apr-15 01:33N 42°01' E 006°31'1212.2
2015-Apr-15 00:33N 42°10' E 006°20'1212.1
2015-Apr-14 23:33N 42°18' E 006°09'1212.1
2015-Apr-14 22:32N 42°27' E 005°57'1612.0
2015-Apr-14 21:13N 42°39' E 005°43'811.7
2015-Apr-14 20:32N 42°45' E 005°35'2211.0
2015-Apr-14 18:30N 43°01' E 005°14'1311.8
2015-Apr-14 17:23N 43°10' E 005°02'1011.9
2015-Apr-14 16:33N 43°20' E 004°58'6 6.1
2015-Apr-14 15:31N 43°25' E 004°53'0 0.0
2015-Apr-14 14:25N 43°25' E 004°53'0 0.0
2015-Apr-14 13:28N 43°25' E 004°53'0 0.0
2015-Apr-14 12:28N 43°25' E 004°53'0 0.0
2015-Apr-14 11:31N 43°25' E 004°53'0 0.0
2015-Apr-14 10:28N 43°25' E 004°53'0 0.0
2015-Apr-14 09:28N 43°25' E 004°53'0 0.0
2015-Apr-14 08:31N 43°25' E 004°53'0 0.0
2015-Apr-14 07:31N 43°25' E 004°53'0 0.0
2015-Apr-14 06:32N 43°25' E 004°53'0 0.0
2015-Apr-14 05:31N 43°25' E 004°53'0 0.0
2015-Apr-14 04:31N 43°25' E 004°53'0 0.0
2015-Apr-14 03:28N 43°25' E 004°53'0 0.0
2015-Apr-14 02:28N 43°25' E 004°53'0 0.0
2015-Apr-14 01:25N 43°25' E 004°53'0 0.0
2015-Apr-14 00:31N 43°25' E 004°53'0 0.0
2015-Apr-13 23:31N 43°25' E 004°53'0 0.0
2015-Apr-13 22:31N 43°25' E 004°53'0 0.0
2015-Apr-13 21:25N 43°25' E 004°53'0 0.0
2015-Apr-13 20:31N 43°25' E 004°53'0 0.0
2015-Apr-13 19:28N 43°25' E 004°53'0 0.0
2015-Apr-13 18:31N 43°25' E 004°53'0 0.0
2015-Apr-13 17:28N 43°25' E 004°53'0 0.0
2015-Apr-13 16:25N 43°25' E 004°53'0 0.0
2015-Apr-13 15:28N 43°25' E 004°53'0 0.0
2015-Apr-13 14:31N 43°25' E 004°53'0 0.0
2015-Apr-13 13:29N 43°25' E 004°53'1 0.8
2015-Apr-13 12:33N 43°24' E 004°53'4 3.8
2015-Apr-13 11:32N 43°24' E 004°58'0 0.0
2015-Apr-13 10:32N 43°24' E 004°58'0 0.0
2015-Apr-13 09:26N 43°24' E 004°58'0 0.0
2015-Apr-13 08:32N 43°24' E 004°58'0 0.0
2015-Apr-13 07:32N 43°24' E 004°58'0 0.0
2015-Apr-13 06:29N 43°24' E 004°58'0 0.0
2015-Apr-13 05:29N 43°24' E 004°58'0 0.0
2015-Apr-13 04:26N 43°24' E 004°58'0 0.0
2015-Apr-13 03:32N 43°24' E 004°58'0 0.0
2015-Apr-13 02:32N 43°24' E 004°58'0 0.0
2015-Apr-13 01:32N 43°24' E 004°58'0 0.0
2015-Apr-13 00:32N 43°24' E 004°58'0 0.0
2015-Apr-12 23:32N 43°24' E 004°58'0 0.0
2015-Apr-12 21:29N 43°24' E 004°58'0 0.1
2015-Apr-12 20:32N 43°24' E 004°58'0 0.1
2015-Apr-12 19:26N 43°24' E 004°58'0 0.0
2015-Apr-12 18:32N 43°24' E 004°58'0 0.0
2015-Apr-12 17:29N 43°24' E 004°58'0 0.0
2015-Apr-12 16:29N 43°24' E 004°58'0 0.0
2015-Apr-12 15:27N 43°24' E 004°58'0 0.0
2015-Apr-12 14:29N 43°24' E 004°58'0 0.0
2015-Apr-12 13:33N 43°24' E 004°58'0 0.0
2015-Apr-12 12:32N 43°24' E 004°58'0 0.0
2015-Apr-12 11:26N 43°24' E 004°58'0 0.0
2015-Apr-12 10:32N 43°24' E 004°58'0 0.0
2015-Apr-12 09:26N 43°24' E 004°58'0 0.1
2015-Apr-12 08:20N 43°24' E 004°58'0 0.1
2015-Apr-12 07:32N 43°24' E 004°58'0 0.0
2015-Apr-12 06:32N 43°24' E 004°58'0 0.0
2015-Apr-12 05:32N 43°24' E 004°58'0 0.0
2015-Apr-12 04:29N 43°24' E 004°58'0 0.0
2015-Apr-12 03:29N 43°24' E 004°58'0 0.0
2015-Apr-12 02:32N 43°24' E 004°58'0 0.0
2015-Apr-12 01:32N 43°24' E 004°58'0 0.1
2015-Apr-12 00:29N 43°24' E 004°58'0 0.0
2015-Apr-11 23:33N 43°24' E 004°58'0 0.0
2015-Apr-11 22:32N 43°24' E 004°58'0 0.0
2015-Apr-11 21:26N 43°24' E 004°58'0 0.0
2015-Apr-11 20:26N 43°24' E 004°58'0 0.1
2015-Apr-11 19:32N 43°24' E 004°58'0 0.1
2015-Apr-11 18:32N 43°24' E 004°58'0 0.0
2015-Apr-11 17:29N 43°24' E 004°58'0 0.0
2015-Apr-11 16:23N 43°24' E 004°58'0 0.0
2015-Apr-11 15:32N 43°24' E 004°58'0 0.0
2015-Apr-11 14:29N 43°24' E 004°58'0 0.0
2015-Apr-11 13:32N 43°24' E 004°58'0 0.0
2015-Apr-11 12:26N 43°24' E 004°58'0 0.0
2015-Apr-11 11:32N 43°24' E 004°58'0 0.0
2015-Apr-11 10:32N 43°24' E 004°58'0 0.0
2015-Apr-11 09:32N 43°24' E 004°58'0 0.0
2015-Apr-11 08:32N 43°24' E 004°58'0 0.0
2015-Apr-11 07:23N 43°24' E 004°58'0 0.0
2015-Apr-11 06:26N 43°24' E 004°58'0 0.0
2015-Apr-11 05:32N 43°24' E 004°58'0 0.0
2015-Apr-11 04:29N 43°24' E 004°58'0 0.0
2015-Apr-11 03:23N 43°24' E 004°58'0 0.0
2015-Apr-11 02:29N 43°24' E 004°58'0 0.0
2015-Apr-11 01:29N 43°24' E 004°58'0 0.1
2015-Apr-11 00:32N 43°24' E 004°58'0 0.0
2015-Apr-10 23:32N 43°24' E 004°58'0 0.0
2015-Apr-10 22:32N 43°24' E 004°58'0 0.0
2015-Apr-10 21:29N 43°24' E 004°58'0 0.0
2015-Apr-10 20:32N 43°24' E 004°58'0 0.0
2015-Apr-10 19:23N 43°24' E 004°58'0 0.0
2015-Apr-10 18:32N 43°24' E 004°58'0 0.0
2015-Apr-10 17:32N 43°24' E 004°58'0 0.0
2015-Apr-10 16:32N 43°24' E 004°58'0 0.0
2015-Apr-10 15:32N 43°24' E 004°58'0 0.0
2015-Apr-10 14:32N 43°24' E 004°58'0 0.0
2015-Apr-10 13:26N 43°24' E 004°58'0 0.0
2015-Apr-10 12:32N 43°24' E 004°58'0 0.0
2015-Apr-10 11:32N 43°24' E 004°58'0 0.0
2015-Apr-10 10:32N 43°24' E 004°58'0 0.0
2015-Apr-10 09:32N 43°24' E 004°58'0 0.0
2015-Apr-10 08:32N 43°24' E 004°58'0 0.0
2015-Apr-10 07:23N 43°24' E 004°58'0 0.1
2015-Apr-10 06:33N 43°24' E 004°58'0 0.0
2015-Apr-10 05:23N 43°24' E 004°58'0 0.0
2015-Apr-10 04:32N 43°24' E 004°58'0 0.0
2015-Apr-10 03:29N 43°24' E 004°58'0 0.0
2015-Apr-10 02:32N 43°24' E 004°58'0 0.1
2015-Apr-10 01:26N 43°24' E 004°58'0 0.0
2015-Apr-10 00:26N 43°24' E 004°58'0 0.0
2015-Apr-09 23:32N 43°24' E 004°58'0 0.0
2015-Apr-09 22:32N 43°24' E 004°58'0 0.0
2015-Apr-09 21:32N 43°24' E 004°58'0 0.0
2015-Apr-09 20:23N 43°24' E 004°58'0 0.0
2015-Apr-09 19:29N 43°24' E 004°58'0 0.0
2015-Apr-09 18:26N 43°24' E 004°58'0 0.0
2015-Apr-09 17:32N 43°24' E 004°58'0 0.0
2015-Apr-09 16:32N 43°24' E 004°58'0 0.0
2015-Apr-09 15:32N 43°24' E 004°58'0 0.0
2015-Apr-09 14:26N 43°24' E 004°58'0 0.0
2015-Apr-09 13:32N 43°24' E 004°58'0 0.0
2015-Apr-09 12:32N 43°24' E 004°58'0 0.0
2015-Apr-09 11:32N 43°24' E 004°58'0 0.0
2015-Apr-09 10:29N 43°24' E 004°58'0 0.0
2015-Apr-09 09:26N 43°24' E 004°58'0 0.0
2015-Apr-09 08:32N 43°24' E 004°58'0 0.0
2015-Apr-09 07:30N 43°24' E 004°58'0 0.0
2015-Apr-09 06:32N 43°24' E 004°58'0 0.0
2015-Apr-09 05:29N 43°24' E 004°58'0 0.0
2015-Apr-09 04:32N 43°24' E 004°58'0 0.0
2015-Apr-09 03:29N 43°24' E 004°58'0 0.0
2015-Apr-09 02:26N 43°24' E 004°58'0 0.0
2015-Apr-09 01:32N 43°24' E 004°58'0 0.0
2015-Apr-09 00:29N 43°24' E 004°58'0 0.0
2015-Apr-08 23:32N 43°24' E 004°58'0 0.0
2015-Apr-08 22:32N 43°24' E 004°58'0 0.1
2015-Apr-08 21:32N 43°24' E 004°58'0 0.0
2015-Apr-08 20:32N 43°24' E 004°58'0 0.0
2015-Apr-08 19:30N 43°24' E 004°58'0 0.0
2015-Apr-08 18:32N 43°24' E 004°58'0 0.0
2015-Apr-08 17:32N 43°24' E 004°58'0 0.0
2015-Apr-08 16:32N 43°24' E 004°58'0 0.0
2015-Apr-08 15:32N 43°24' E 004°58'0 0.0
2015-Apr-08 14:32N 43°24' E 004°58'0 0.0
2015-Apr-08 13:32N 43°24' E 004°58'0 0.0
2015-Apr-08 12:26N 43°24' E 004°58'0 0.0
2015-Apr-08 11:32N 43°24' E 004°58'0 0.1
2015-Apr-08 10:32N 43°24' E 004°58'0 0.0
2015-Apr-08 09:23N 43°24' E 004°58'0 0.0
2015-Apr-08 08:32N 43°24' E 004°58'0 0.0
2015-Apr-08 07:20N 43°24' E 004°58'0 0.0
2015-Apr-08 06:26N 43°24' E 004°58'0 0.0
2015-Apr-08 05:29N 43°24' E 004°58'0 0.0
2015-Apr-08 04:33N 43°24' E 004°58'0 0.0
2015-Apr-08 03:30N 43°24' E 004°58'0 0.0
2015-Apr-08 02:32N 43°24' E 004°58'0 0.0
2015-Apr-08 01:32N 43°24' E 004°58'0 0.0
2015-Apr-08 00:32N 43°24' E 004°58'0 0.0
2015-Apr-07 23:32N 43°24' E 004°58'0 0.0
2015-Apr-07 22:29N 43°24' E 004°58'0 0.0
2015-Apr-07 21:29N 43°24' E 004°58'0 0.0
2015-Apr-07 20:32N 43°24' E 004°58'0 0.0
2015-Apr-07 19:32N 43°24' E 004°58'0 0.0
2015-Apr-07 18:26N 43°24' E 004°58'0 0.0
2015-Apr-07 17:26N 43°24' E 004°58'0 0.0
2015-Apr-07 16:32N 43°24' E 004°58'0 0.0
2015-Apr-07 15:32N 43°24' E 004°58'0 0.0
2015-Apr-07 14:32N 43°24' E 004°58'0 0.0
2015-Apr-07 13:23N 43°24' E 004°58'0 0.0
2015-Apr-07 12:26N 43°24' E 004°58'0 0.0
2015-Apr-07 11:32N 43°24' E 004°58'0 0.1
2015-Apr-07 10:33N 43°24' E 004°58'9 9.1
2015-Apr-07 09:33N 43°15' E 005°01'1110.8
2015-Apr-07 08:34N 43°07' E 005°11'  

Dump ship's entire track history